Strona główna
METAR-TAF:

METAR-TAF

Lotnisko :

Port lotniczy Blackpool

Blackpool, Anglia

Szerokość geograficzna: 53-46N, Długość geograficzna: 003-02W, wysokość: 10 m

Aktualna obserwacja pogody

Raport powstał 34 minut temu, godzina 18:20 UTC
Wiatr 5 kt od zachodnio-północny zachód, zmienny między zachodnio-południowy zachód i północny zachód
Temperatura 22°C
Wilgotność 60%
Ciśnienie 1021 hPa
Widzialność 10 km lub więcej
Brak chmur poniżej 1500 m i brak chmur cumulonimbus

METAR: EGNH 151820Z 29005KT 250V320 CAVOK 22/14 Q1021

czas: 19:54 (18:54 UTC)

Prognoza

Raport powstał 1 godzina i 54 minut temu, godzina 17:00 UTC
Prognoza ważna od 15 godzina 18 UTC do 15 godzina 20 UTC
Wiatr 7 kt od północno-północny zachód
Widzialność 10 km lub więcej
Rozproszone chmury na wysokości 3500 ft

TAF: EGNH 151700Z 1518/1520 33007KT 9999 SCT035

Obserwacja i prognoza pogody dla ponad 4000 lotnisk (raport METAR i TAF).

Dostępne stacje oznaczono żółtymi i czerwonymi punktami na mapie.

Najedź kursorem aby zobaczyć nazwę stacji.

Kliknij aby zobaczyć obserwacje i prognozy pogody.

Aby zmienić mapę: kliknij na zielony przycisk z czarnym krzyżykiem, aby powiększyć; na zielony przycisk z myślnikiem, aby pomniejszyć; na zielone strzałki, aby przejść do map sąsiednich.


METAR-TAF: